sensor_id;sensor_type;location;lat;lon;timestamp;P1;durP1;ratioP1;P2;durP2;ratioP2
78382;SDS011;67668;52.294;4.692;2023-05-20T00:03:18;6.15;;;2.40;;
78382;SDS011;67668;52.294;4.692;2023-05-20T00:05:44;10.75;;;3.72;;
78382;SDS011;67668;52.294;4.692;2023-05-20T00:08:10;5.07;;;2.53;;
78382;SDS011;67668;52.294;4.692;2023-05-20T00:10:36;8.38;;;3.40;;
78382;SDS011;67668;52.294;4.692;2023-05-20T00:13:02;7.90;;;3.03;;
78382;SDS011;67668;52.294;4.692;2023-05-20T00:15:28;9.50;;;2.85;;
78382;SDS011;67668;52.294;4.692;2023-05-20T00:17:55;8.52;;;2.75;;
78382;SDS011;67668;52.294;4.692;2023-05-20T00:20:21;7.35;;;2.60;;
78382;SDS011;67668;52.294;4.692;2023-05-20T00:22:46;11.00;;;3.08;;
78382;SDS011;67668;52.294;4.692;2023-05-20T00:25:11;7.83;;;2.80;;
78382;SDS011;67668;52.294;4.692;2023-05-20T00:27:39;6.80;;;3.03;;
78382;SDS011;67668;52.294;4.692;2023-05-20T00:30:07;11.23;;;3.03;;
78382;SDS011;67668;52.294;4.692;2023-05-20T00:32:33;6.45;;;3.00;;
78382;SDS011;67668;52.294;4.692;2023-05-20T00:34:59;8.00;;;2.83;;
78382;SDS011;67668;52.294;4.692;2023-05-20T00:37:25;6.53;;;3.30;;
78382;SDS011;67668;52.294;4.692;2023-05-20T00:39:50;11.35;;;3.42;;
78382;SDS011;67668;52.294;4.692;2023-05-20T00:42:22;6.07;;;2.67;;
78382;SDS011;67668;52.294;4.692;2023-05-20T00:44:52;8.30;;;2.90;;
78382;SDS011;67668;52.294;4.692;2023-05-20T00:47:19;6.07;;;3.13;;
78382;SDS011;67668;52.294;4.692;2023-05-20T00:49:49;8.13;;;3.50;;
78382;SDS011;67668;52.294;4.692;2023-05-20T00:52:15;7.88;;;3.17;;
78382;SDS011;67668;52.294;4.692;2023-05-20T00:54:42;9.18;;;3.65;;
78382;SDS011;67668;52.294;4.692;2023-05-20T00:57:07;7.82;;;2.35;;
78382;SDS011;67668;52.294;4.692;2023-05-20T00:59:34;6.68;;;3.35;;
78382;SDS011;67668;52.294;4.692;2023-05-20T01:02:01;7.18;;;2.90;;
78382;SDS011;67668;52.294;4.692;2023-05-20T01:04:27;5.38;;;2.75;;
78382;SDS011;67668;52.294;4.692;2023-05-20T01:06:52;6.47;;;2.92;;
78382;SDS011;67668;52.294;4.692;2023-05-20T01:09:19;7.03;;;2.88;;
78382;SDS011;67668;52.294;4.692;2023-05-20T01:11:55;7.63;;;3.10;;
78382;SDS011;67668;52.294;4.692;2023-05-20T01:14:30;5.90;;;2.85;;
78382;SDS011;67668;52.294;4.692;2023-05-20T01:17:01;10.07;;;2.72;;
78382;SDS011;67668;52.294;4.692;2023-05-20T01:19:42;10.40;;;3.05;;
78382;SDS011;67668;52.294;4.692;2023-05-20T01:22:09;9.32;;;2.80;;
78382;SDS011;67668;52.294;4.692;2023-05-20T01:24:42;6.45;;;2.88;;
78382;SDS011;67668;52.294;4.692;2023-05-20T01:27:09;8.60;;;3.58;;
78382;SDS011;67668;52.294;4.692;2023-05-20T01:29:37;4.97;;;2.63;;
78382;SDS011;67668;52.294;4.692;2023-05-20T01:32:09;4.75;;;2.50;;
78382;SDS011;67668;52.294;4.692;2023-05-20T01:34:36;9.32;;;2.67;;
78382;SDS011;67668;52.294;4.692;2023-05-20T01:37:03;7.70;;;2.83;;
78382;SDS011;67668;52.294;4.692;2023-05-20T01:39:31;9.10;;;3.83;;
78382;SDS011;67668;52.294;4.692;2023-05-20T01:42:00;7.13;;;3.70;;
78382;SDS011;67668;52.294;4.692;2023-05-20T01:44:30;10.63;;;3.78;;
78382;SDS011;67668;52.294;4.692;2023-05-20T01:46:56;7.53;;;3.47;;
78382;SDS011;67668;52.294;4.692;2023-05-20T01:49:21;11.52;;;3.90;;
78382;SDS011;67668;52.294;4.692;2023-05-20T01:51:46;11.30;;;4.15;;
78382;SDS011;67668;52.294;4.692;2023-05-20T01:54:12;12.18;;;4.07;;
78382;SDS011;67668;52.294;4.692;2023-05-20T01:56:37;6.35;;;3.95;;
78382;SDS011;67668;52.294;4.692;2023-05-20T01:59:03;10.73;;;4.60;;
78382;SDS011;67668;52.294;4.692;2023-05-20T02:01:28;13.27;;;4.68;;
78382;SDS011;67668;52.294;4.692;2023-05-20T02:03:53;8.38;;;4.15;;
78382;SDS011;67668;52.294;4.692;2023-05-20T02:06:19;13.03;;;4.33;;
78382;SDS011;67668;52.294;4.692;2023-05-20T02:08:44;7.72;;;4.03;;
78382;SDS011;67668;52.294;4.692;2023-05-20T02:11:10;7.43;;;4.32;;
78382;SDS011;67668;52.294;4.692;2023-05-20T02:13:35;8.27;;;4.10;;
78382;SDS011;67668;52.294;4.692;2023-05-20T02:16:00;10.75;;;4.05;;
78382;SDS011;67668;52.294;4.692;2023-05-20T02:18:26;12.05;;;3.65;;
78382;SDS011;67668;52.294;4.692;2023-05-20T02:20:51;7.53;;;3.90;;
78382;SDS011;67668;52.294;4.692;2023-05-20T02:23:17;10.18;;;4.00;;
78382;SDS011;67668;52.294;4.692;2023-05-20T02:25:42;7.88;;;3.80;;
78382;SDS011;67668;52.294;4.692;2023-05-20T02:28:08;7.07;;;3.20;;
78382;SDS011;67668;52.294;4.692;2023-05-20T02:30:35;11.85;;;4.90;;
78382;SDS011;67668;52.294;4.692;2023-05-20T02:33:02;6.65;;;4.05;;
78382;SDS011;67668;52.294;4.692;2023-05-20T02:35:27;7.97;;;4.43;;
78382;SDS011;67668;52.294;4.692;2023-05-20T02:37:52;6.50;;;3.28;;
78382;SDS011;67668;52.294;4.692;2023-05-20T02:40:18;7.00;;;3.80;;
78382;SDS011;67668;52.294;4.692;2023-05-20T02:42:43;13.52;;;4.45;;
78382;SDS011;67668;52.294;4.692;2023-05-20T02:45:10;9.45;;;4.50;;
78382;SDS011;67668;52.294;4.692;2023-05-20T02:47:36;10.00;;;3.60;;
78382;SDS011;67668;52.294;4.692;2023-05-20T02:50:01;7.63;;;4.50;;
78382;SDS011;67668;52.294;4.692;2023-05-20T02:52:27;13.00;;;3.88;;
78382;SDS011;67668;52.294;4.692;2023-05-20T02:54:52;11.38;;;4.28;;
78382;SDS011;67668;52.294;4.692;2023-05-20T02:57:18;6.57;;;3.88;;
78382;SDS011;67668;52.294;4.692;2023-05-20T02:59:43;14.60;;;4.77;;
78382;SDS011;67668;52.294;4.692;2023-05-20T03:02:08;12.38;;;4.18;;
78382;SDS011;67668;52.294;4.692;2023-05-20T03:04:35;8.50;;;3.58;;
78382;SDS011;67668;52.294;4.692;2023-05-20T03:07:05;11.88;;;3.83;;
78382;SDS011;67668;52.294;4.692;2023-05-20T03:09:34;7.03;;;3.30;;
78382;SDS011;67668;52.294;4.692;2023-05-20T03:11:59;10.75;;;4.30;;
78382;SDS011;67668;52.294;4.692;2023-05-20T03:14:24;6.18;;;3.83;;
78382;SDS011;67668;52.294;4.692;2023-05-20T03:16:50;6.88;;;3.80;;
78382;SDS011;67668;52.294;4.692;2023-05-20T03:19:16;7.97;;;3.63;;
78382;SDS011;67668;52.294;4.692;2023-05-20T03:21:41;9.67;;;4.43;;
78382;SDS011;67668;52.294;4.692;2023-05-20T03:24:07;8.07;;;4.18;;
78382;SDS011;67668;52.294;4.692;2023-05-20T03:26:33;7.93;;;4.30;;
78382;SDS011;67668;52.294;4.692;2023-05-20T03:29:01;9.48;;;3.83;;
78382;SDS011;67668;52.294;4.692;2023-05-20T03:31:28;9.65;;;4.38;;
78382;SDS011;67668;52.294;4.692;2023-05-20T03:33:53;9.82;;;4.00;;
78382;SDS011;67668;52.294;4.692;2023-05-20T03:36:19;6.53;;;4.28;;
78382;SDS011;67668;52.294;4.692;2023-05-20T03:38:44;9.55;;;4.65;;
78382;SDS011;67668;52.294;4.692;2023-05-20T03:41:10;7.85;;;4.80;;
78382;SDS011;67668;52.294;4.692;2023-05-20T03:43:35;9.80;;;4.22;;
78382;SDS011;67668;52.294;4.692;2023-05-20T03:46:00;8.65;;;4.13;;
78382;SDS011;67668;52.294;4.692;2023-05-20T03:48:26;8.70;;;4.05;;
78382;SDS011;67668;52.294;4.692;2023-05-20T03:50:51;11.63;;;4.22;;
78382;SDS011;67668;52.294;4.692;2023-05-20T03:53:17;10.65;;;4.22;;
78382;SDS011;67668;52.294;4.692;2023-05-20T03:55:44;9.00;;;4.63;;
78382;SDS011;67668;52.294;4.692;2023-05-20T03:58:10;11.57;;;4.20;;
78382;SDS011;67668;52.294;4.692;2023-05-20T04:00:37;9.30;;;3.85;;
78382;SDS011;67668;52.294;4.692;2023-05-20T04:03:03;9.70;;;5.10;;
78382;SDS011;67668;52.294;4.692;2023-05-20T04:05:30;9.05;;;4.57;;
78382;SDS011;67668;52.294;4.692;2023-05-20T04:07:56;7.13;;;4.13;;
78382;SDS011;67668;52.294;4.692;2023-05-20T04:10:22;12.95;;;4.60;;
78382;SDS011;67668;52.294;4.692;2023-05-20T04:12:48;12.57;;;4.15;;
78382;SDS011;67668;52.294;4.692;2023-05-20T04:15:14;7.53;;;4.38;;
78382;SDS011;67668;52.294;4.692;2023-05-20T04:17:40;14.13;;;4.50;;
78382;SDS011;67668;52.294;4.692;2023-05-20T04:20:06;9.30;;;4.05;;
78382;SDS011;67668;52.294;4.692;2023-05-20T04:22:32;8.48;;;4.72;;
78382;SDS011;67668;52.294;4.692;2023-05-20T04:24:58;8.35;;;4.20;;
78382;SDS011;67668;52.294;4.692;2023-05-20T04:27:24;10.82;;;4.20;;
78382;SDS011;67668;52.294;4.692;2023-05-20T04:29:51;6.88;;;4.15;;
78382;SDS011;67668;52.294;4.692;2023-05-20T04:32:19;8.60;;;4.68;;
78382;SDS011;67668;52.294;4.692;2023-05-20T04:34:45;6.53;;;4.03;;
78382;SDS011;67668;52.294;4.692;2023-05-20T04:37:11;8.73;;;4.70;;
78382;SDS011;67668;52.294;4.692;2023-05-20T04:39:37;10.55;;;4.30;;
78382;SDS011;67668;52.294;4.692;2023-05-20T04:42:03;16.38;;;4.65;;
78382;SDS011;67668;52.294;4.692;2023-05-20T04:44:29;14.18;;;4.55;;
78382;SDS011;67668;52.294;4.692;2023-05-20T04:46:56;12.02;;;4.93;;
78382;SDS011;67668;52.294;4.692;2023-05-20T04:49:24;10.82;;;5.00;;
78382;SDS011;67668;52.294;4.692;2023-05-20T04:51:50;10.15;;;5.47;;
78382;SDS011;67668;52.294;4.692;2023-05-20T04:54:16;11.80;;;5.00;;
78382;SDS011;67668;52.294;4.692;2023-05-20T04:56:42;12.80;;;5.00;;
78382;SDS011;67668;52.294;4.692;2023-05-20T04:59:08;15.27;;;5.35;;
78382;SDS011;67668;52.294;4.692;2023-05-20T05:01:35;10.38;;;4.28;;
78382;SDS011;67668;52.294;4.692;2023-05-20T05:04:01;10.95;;;4.68;;
78382;SDS011;67668;52.294;4.692;2023-05-20T05:06:27;8.85;;;5.20;;
78382;SDS011;67668;52.294;4.692;2023-05-20T05:08:53;9.52;;;4.53;;
78382;SDS011;67668;52.294;4.692;2023-05-20T05:11:18;7.40;;;4.50;;
78382;SDS011;67668;52.294;4.692;2023-05-20T05:13:43;11.95;;;4.72;;
78382;SDS011;67668;52.294;4.692;2023-05-20T05:16:09;10.75;;;4.38;;
78382;SDS011;67668;52.294;4.692;2023-05-20T05:18:35;9.63;;;4.72;;
78382;SDS011;67668;52.294;4.692;2023-05-20T05:21:04;9.38;;;4.15;;
78382;SDS011;67668;52.294;4.692;2023-05-20T05:23:35;7.70;;;4.50;;
78382;SDS011;67668;52.294;4.692;2023-05-20T05:28:29;7.80;;;4.88;;
78382;SDS011;67668;52.294;4.692;2023-05-20T05:30:55;8.23;;;4.33;;
78382;SDS011;67668;52.294;4.692;2023-05-20T05:33:21;10.10;;;5.38;;
78382;SDS011;67668;52.294;4.692;2023-05-20T05:35:46;7.10;;;4.35;;
78382;SDS011;67668;52.294;4.692;2023-05-20T05:38:12;8.13;;;4.03;;
78382;SDS011;67668;52.294;4.692;2023-05-20T05:40:37;7.53;;;3.67;;
78382;SDS011;67668;52.294;4.692;2023-05-20T05:43:03;12.53;;;5.10;;
78382;SDS011;67668;52.294;4.692;2023-05-20T05:45:28;11.57;;;4.53;;
78382;SDS011;67668;52.294;4.692;2023-05-20T05:47:53;8.65;;;4.03;;
78382;SDS011;67668;52.294;4.692;2023-05-20T05:50:19;10.30;;;3.72;;
78382;SDS011;67668;52.294;4.692;2023-05-20T05:52:44;10.68;;;4.75;;
78382;SDS011;67668;52.294;4.692;2023-05-20T05:55:11;7.38;;;3.97;;
78382;SDS011;67668;52.294;4.692;2023-05-20T05:57:36;7.90;;;4.22;;
78382;SDS011;67668;52.294;4.692;2023-05-20T06:00:02;8.93;;;4.43;;
78382;SDS011;67668;52.294;4.692;2023-05-20T06:02:28;7.07;;;3.78;;
78382;SDS011;67668;52.294;4.692;2023-05-20T06:04:54;13.30;;;4.13;;
78382;SDS011;67668;52.294;4.692;2023-05-20T06:07:19;10.63;;;4.32;;
78382;SDS011;67668;52.294;4.692;2023-05-20T06:09:45;8.30;;;4.18;;
78382;SDS011;67668;52.294;4.692;2023-05-20T06:12:10;7.43;;;4.15;;
78382;SDS011;67668;52.294;4.692;2023-05-20T06:14:35;8.10;;;3.85;;
78382;SDS011;67668;52.294;4.692;2023-05-20T06:17:01;9.75;;;4.05;;
78382;SDS011;67668;52.294;4.692;2023-05-20T06:19:27;11.10;;;4.88;;
78382;SDS011;67668;52.294;4.692;2023-05-20T06:21:52;11.27;;;4.10;;
78382;SDS011;67668;52.294;4.692;2023-05-20T06:24:18;9.55;;;4.90;;
78382;SDS011;67668;52.294;4.692;2023-05-20T06:26:43;7.15;;;4.53;;
78382;SDS011;67668;52.294;4.692;2023-05-20T06:29:10;9.70;;;5.05;;
78382;SDS011;67668;52.294;4.692;2023-05-20T06:31:35;13.55;;;5.10;;
78382;SDS011;67668;52.294;4.692;2023-05-20T06:34:01;10.32;;;4.45;;
78382;SDS011;67668;52.294;4.692;2023-05-20T06:36:26;5.53;;;3.00;;
78382;SDS011;67668;52.294;4.692;2023-05-20T06:38:52;9.27;;;3.85;;
78382;SDS011;67668;52.294;4.692;2023-05-20T06:41:18;4.95;;;2.67;;
78382;SDS011;67668;52.294;4.692;2023-05-20T06:43:43;4.45;;;2.60;;
78382;SDS011;67668;52.294;4.692;2023-05-20T06:46:09;5.50;;;2.70;;
78382;SDS011;67668;52.294;4.692;2023-05-20T06:48:34;7.53;;;3.10;;
78382;SDS011;67668;52.294;4.692;2023-05-20T06:50:59;7.60;;;3.23;;
78382;SDS011;67668;52.294;4.692;2023-05-20T06:53:25;4.68;;;2.00;;
78382;SDS011;67668;52.294;4.692;2023-05-20T06:55:52;6.30;;;2.57;;
78382;SDS011;67668;52.294;4.692;2023-05-20T06:58:19;5.55;;;2.30;;
78382;SDS011;67668;52.294;4.692;2023-05-20T07:00:45;7.85;;;2.63;;
78382;SDS011;67668;52.294;4.692;2023-05-20T07:03:11;7.60;;;3.08;;
78382;SDS011;67668;52.294;4.692;2023-05-20T07:05:37;3.20;;;2.17;;
78382;SDS011;67668;52.294;4.692;2023-05-20T07:08:03;4.88;;;2.38;;
78382;SDS011;67668;52.294;4.692;2023-05-20T07:10:28;7.00;;;2.95;;
78382;SDS011;67668;52.294;4.692;2023-05-20T07:12:54;3.60;;;2.20;;
78382;SDS011;67668;52.294;4.692;2023-05-20T07:15:19;5.55;;;2.50;;
78382;SDS011;67668;52.294;4.692;2023-05-20T07:17:44;4.93;;;2.23;;
78382;SDS011;67668;52.294;4.692;2023-05-20T07:20:10;6.13;;;2.37;;
78382;SDS011;67668;52.294;4.692;2023-05-20T07:22:35;3.15;;;2.10;;
78382;SDS011;67668;52.294;4.692;2023-05-20T07:25:01;4.57;;;2.30;;
78382;SDS011;67668;52.294;4.692;2023-05-20T07:27:27;6.38;;;3.30;;
78382;SDS011;67668;52.294;4.692;2023-05-20T07:29:52;4.60;;;2.15;;
78382;SDS011;67668;52.294;4.692;2023-05-20T07:32:19;4.40;;;2.00;;
78382;SDS011;67668;52.294;4.692;2023-05-20T07:34:44;11.75;;;3.63;;
78382;SDS011;67668;52.294;4.692;2023-05-20T07:37:10;4.47;;;2.23;;
78382;SDS011;67668;52.294;4.692;2023-05-20T07:39:36;7.28;;;2.80;;
78382;SDS011;67668;52.294;4.692;2023-05-20T07:42:03;5.63;;;2.60;;
78382;SDS011;67668;52.294;4.692;2023-05-20T07:44:28;5.95;;;2.60;;
78382;SDS011;67668;52.294;4.692;2023-05-20T07:46:54;4.45;;;2.15;;
78382;SDS011;67668;52.294;4.692;2023-05-20T07:49:20;6.05;;;2.85;;
78382;SDS011;67668;52.294;4.692;2023-05-20T07:51:45;7.65;;;2.90;;
78382;SDS011;67668;52.294;4.692;2023-05-20T07:54:11;8.50;;;2.33;;
78382;SDS011;67668;52.294;4.692;2023-05-20T07:56:36;5.45;;;2.72;;
78382;SDS011;67668;52.294;4.692;2023-05-20T07:59:02;6.13;;;2.67;;
78382;SDS011;67668;52.294;4.692;2023-05-20T08:01:27;5.20;;;2.65;;
78382;SDS011;67668;52.294;4.692;2023-05-20T08:03:53;5.60;;;2.38;;
78382;SDS011;67668;52.294;4.692;2023-05-20T08:06:19;3.90;;;1.83;;
78382;SDS011;67668;52.294;4.692;2023-05-20T08:08:45;5.07;;;2.65;;
78382;SDS011;67668;52.294;4.692;2023-05-20T08:11:11;6.90;;;2.45;;
78382;SDS011;67668;52.294;4.692;2023-05-20T08:13:38;4.25;;;1.98;;
78382;SDS011;67668;52.294;4.692;2023-05-20T08:16:03;3.70;;;1.60;;
78382;SDS011;67668;52.294;4.692;2023-05-20T08:18:30;7.53;;;2.50;;
78382;SDS011;67668;52.294;4.692;2023-05-20T08:20:57;4.07;;;2.25;;
78382;SDS011;67668;52.294;4.692;2023-05-20T08:23:23;6.80;;;2.33;;
78382;SDS011;67668;52.294;4.692;2023-05-20T08:25:48;4.28;;;2.33;;
78382;SDS011;67668;52.294;4.692;2023-05-20T08:28:14;9.50;;;2.57;;
78382;SDS011;67668;52.294;4.692;2023-05-20T08:30:39;4.60;;;2.55;;
78382;SDS011;67668;52.294;4.692;2023-05-20T08:33:05;5.38;;;2.10;;
78382;SDS011;67668;52.294;4.692;2023-05-20T08:35:31;5.65;;;2.05;;
78382;SDS011;67668;52.294;4.692;2023-05-20T08:37:57;4.68;;;2.30;;
78382;SDS011;67668;52.294;4.692;2023-05-20T08:40:22;5.40;;;2.40;;
78382;SDS011;67668;52.294;4.692;2023-05-20T08:42:48;3.88;;;1.70;;
78382;SDS011;67668;52.294;4.692;2023-05-20T08:45:17;4.65;;;1.95;;
78382;SDS011;67668;52.294;4.692;2023-05-20T08:47:43;5.18;;;1.75;;
78382;SDS011;67668;52.294;4.692;2023-05-20T08:50:10;3.03;;;1.50;;
78382;SDS011;67668;52.294;4.692;2023-05-20T08:52:37;4.22;;;2.28;;
78382;SDS011;67668;52.294;4.692;2023-05-20T08:55:07;3.55;;;2.20;;
78382;SDS011;67668;52.294;4.692;2023-05-20T08:57:34;4.55;;;1.80;;
78382;SDS011;67668;52.294;4.692;2023-05-20T09:00:01;2.47;;;1.45;;
78382;SDS011;67668;52.294;4.692;2023-05-20T09:02:35;4.85;;;1.77;;
78382;SDS011;67668;52.294;4.692;2023-05-20T09:05:02;5.68;;;1.80;;
78382;SDS011;67668;52.294;4.692;2023-05-20T09:07:29;3.25;;;1.58;;
78382;SDS011;67668;52.294;4.692;2023-05-20T09:09:54;3.60;;;1.65;;
78382;SDS011;67668;52.294;4.692;2023-05-20T09:12:20;5.15;;;1.75;;
78382;SDS011;67668;52.294;4.692;2023-05-20T09:14:46;3.95;;;1.48;;
78382;SDS011;67668;52.294;4.692;2023-05-20T09:17:11;3.28;;;2.17;;
78382;SDS011;67668;52.294;4.692;2023-05-20T09:19:37;4.53;;;1.50;;
78382;SDS011;67668;52.294;4.692;2023-05-20T09:22:03;4.03;;;1.33;;
78382;SDS011;67668;52.294;4.692;2023-05-20T09:24:30;4.47;;;2.10;;
78382;SDS011;67668;52.294;4.692;2023-05-20T09:26:55;5.13;;;1.55;;
78382;SDS011;67668;52.294;4.692;2023-05-20T09:29:22;2.75;;;1.17;;
78382;SDS011;67668;52.294;4.692;2023-05-20T09:31:50;3.58;;;1.23;;
78382;SDS011;67668;52.294;4.692;2023-05-20T09:34:16;3.30;;;1.50;;
78382;SDS011;67668;52.294;4.692;2023-05-20T09:36:45;3.10;;;1.23;;
78382;SDS011;67668;52.294;4.692;2023-05-20T09:39:15;3.28;;;1.27;;
78382;SDS011;67668;52.294;4.692;2023-05-20T09:41:54;3.45;;;1.60;;
78382;SDS011;67668;52.294;4.692;2023-05-20T09:44:26;3.25;;;1.25;;
78382;SDS011;67668;52.294;4.692;2023-05-20T09:46:53;3.22;;;1.73;;
78382;SDS011;67668;52.294;4.692;2023-05-20T09:49:20;4.15;;;1.15;;
78382;SDS011;67668;52.294;4.692;2023-05-20T09:51:47;2.38;;;1.30;;
78382;SDS011;67668;52.294;4.692;2023-05-20T09:54:13;2.70;;;1.42;;
78382;SDS011;67668;52.294;4.692;2023-05-20T09:56:40;3.45;;;1.60;;
78382;SDS011;67668;52.294;4.692;2023-05-20T09:59:06;3.17;;;1.52;;
78382;SDS011;67668;52.294;4.692;2023-05-20T10:01:33;5.07;;;1.45;;
78382;SDS011;67668;52.294;4.692;2023-05-20T10:03:58;4.63;;;1.40;;
78382;SDS011;67668;52.294;4.692;2023-05-20T10:06:29;2.45;;;1.10;;
78382;SDS011;67668;52.294;4.692;2023-05-20T10:14:41;4.88;;;1.50;;
78382;SDS011;67668;52.294;4.692;2023-05-20T10:19:42;4.47;;;1.57;;
78382;SDS011;67668;52.294;4.692;2023-05-20T10:22:09;2.38;;;1.45;;
78382;SDS011;67668;52.294;4.692;2023-05-20T10:24:37;2.53;;;1.30;;
78382;SDS011;67668;52.294;4.692;2023-05-20T10:27:08;3.00;;;1.75;;
78382;SDS011;67668;52.294;4.692;2023-05-20T10:29:41;3.45;;;1.38;;
78382;SDS011;67668;52.294;4.692;2023-05-20T10:32:08;3.65;;;1.30;;
78382;SDS011;67668;52.294;4.692;2023-05-20T10:34:43;3.67;;;1.85;;
78382;SDS011;67668;52.294;4.692;2023-05-20T10:37:22;2.58;;;1.30;;
78382;SDS011;67668;52.294;4.692;2023-05-20T10:39:49;2.65;;;1.02;;
78382;SDS011;67668;52.294;4.692;2023-05-20T10:42:15;2.38;;;1.10;;
78382;SDS011;67668;52.294;4.692;2023-05-20T10:44:44;2.50;;;1.33;;
78382;SDS011;67668;52.294;4.692;2023-05-20T10:47:10;3.80;;;1.63;;
78382;SDS011;67668;52.294;4.692;2023-05-20T10:49:45;3.67;;;1.95;;
78382;SDS011;67668;52.294;4.692;2023-05-20T10:52:17;2.88;;;1.30;;
78382;SDS011;67668;52.294;4.692;2023-05-20T10:54:53;4.07;;;1.40;;
78382;SDS011;67668;52.294;4.692;2023-05-20T10:57:20;5.03;;;1.35;;
78382;SDS011;67668;52.294;4.692;2023-05-20T10:59:47;2.03;;;1.20;;
78382;SDS011;67668;52.294;4.692;2023-05-20T11:02:16;2.05;;;1.13;;
78382;SDS011;67668;52.294;4.692;2023-05-20T11:04:42;3.85;;;1.30;;
78382;SDS011;67668;52.294;4.692;2023-05-20T11:07:08;3.90;;;1.50;;
78382;SDS011;67668;52.294;4.692;2023-05-20T11:09:34;2.25;;;1.08;;
78382;SDS011;67668;52.294;4.692;2023-05-20T11:12:00;3.22;;;1.33;;
78382;SDS011;67668;52.294;4.692;2023-05-20T11:14:29;2.33;;;1.20;;
78382;SDS011;67668;52.294;4.692;2023-05-20T11:16:55;3.40;;;1.13;;
78382;SDS011;67668;52.294;4.692;2023-05-20T11:19:23;3.40;;;1.58;;
78382;SDS011;67668;52.294;4.692;2023-05-20T11:21:48;5.00;;;1.17;;
78382;SDS011;67668;52.294;4.692;2023-05-20T11:24:21;5.15;;;1.45;;
78382;SDS011;67668;52.294;4.692;2023-05-20T11:26:51;2.97;;;1.30;;
78382;SDS011;67668;52.294;4.692;2023-05-20T11:29:17;4.30;;;1.58;;
78382;SDS011;67668;52.294;4.692;2023-05-20T11:31:44;3.88;;;1.45;;
78382;SDS011;67668;52.294;4.692;2023-05-20T11:34:11;3.92;;;1.98;;
78382;SDS011;67668;52.294;4.692;2023-05-20T11:36:40;3.13;;;1.53;;
78382;SDS011;67668;52.294;4.692;2023-05-20T11:39:09;2.17;;;1.30;;
78382;SDS011;67668;52.294;4.692;2023-05-20T11:41:36;3.63;;;1.35;;
78382;SDS011;67668;52.294;4.692;2023-05-20T11:44:03;1.80;;;1.08;;
78382;SDS011;67668;52.294;4.692;2023-05-20T11:46:29;3.95;;;1.73;;
78382;SDS011;67668;52.294;4.692;2023-05-20T11:48:55;4.90;;;3.95;;
78382;SDS011;67668;52.294;4.692;2023-05-20T11:51:22;5.18;;;2.28;;
78382;SDS011;67668;52.294;4.692;2023-05-20T11:53:48;20.45;;;18.40;;
78382;SDS011;67668;52.294;4.692;2023-05-20T11:56:14;2.30;;;1.63;;
78382;SDS011;67668;52.294;4.692;2023-05-20T11:58:42;3.28;;;1.20;;
78382;SDS011;67668;52.294;4.692;2023-05-20T12:01:08;3.40;;;1.35;;
78382;SDS011;67668;52.294;4.692;2023-05-20T12:03:34;4.50;;;1.77;;
78382;SDS011;67668;52.294;4.692;2023-05-20T12:06:00;5.47;;;1.58;;
78382;SDS011;67668;52.294;4.692;2023-05-20T12:08:26;5.82;;;2.03;;
78382;SDS011;67668;52.294;4.692;2023-05-20T12:10:52;3.85;;;1.30;;
78382;SDS011;67668;52.294;4.692;2023-05-20T12:13:17;3.30;;;1.75;;
78382;SDS011;67668;52.294;4.692;2023-05-20T12:15:43;5.80;;;1.90;;
78382;SDS011;67668;52.294;4.692;2023-05-20T12:18:08;4.45;;;1.67;;
78382;SDS011;67668;52.294;4.692;2023-05-20T12:20:35;3.10;;;1.45;;
78382;SDS011;67668;52.294;4.692;2023-05-20T12:23:01;4.13;;;1.30;;
78382;SDS011;67668;52.294;4.692;2023-05-20T12:25:27;4.88;;;1.20;;
78382;SDS011;67668;52.294;4.692;2023-05-20T12:27:53;3.13;;;1.80;;
78382;SDS011;67668;52.294;4.692;2023-05-20T12:30:20;4.15;;;0.98;;
78382;SDS011;67668;52.294;4.692;2023-05-20T12:32:47;3.03;;;1.20;;
78382;SDS011;67668;52.294;4.692;2023-05-20T12:35:16;6.70;;;1.55;;
78382;SDS011;67668;52.294;4.692;2023-05-20T12:37:42;3.53;;;1.42;;
78382;SDS011;67668;52.294;4.692;2023-05-20T12:40:09;2.88;;;1.10;;
78382;SDS011;67668;52.294;4.692;2023-05-20T12:42:39;2.58;;;1.20;;
78382;SDS011;67668;52.294;4.692;2023-05-20T12:45:05;3.15;;;1.17;;
78382;SDS011;67668;52.294;4.692;2023-05-20T12:47:33;2.80;;;0.77;;
78382;SDS011;67668;52.294;4.692;2023-05-20T12:49:59;3.45;;;1.75;;
78382;SDS011;67668;52.294;4.692;2023-05-20T12:52:25;2.75;;;0.98;;
78382;SDS011;67668;52.294;4.692;2023-05-20T12:54:52;2.55;;;1.00;;
78382;SDS011;67668;52.294;4.692;2023-05-20T12:57:19;4.82;;;1.40;;
78382;SDS011;67668;52.294;4.692;2023-05-20T12:59:45;2.90;;;1.13;;
78382;SDS011;67668;52.294;4.692;2023-05-20T13:02:10;3.33;;;1.20;;
78382;SDS011;67668;52.294;4.692;2023-05-20T13:04:36;6.18;;;1.30;;
78382;SDS011;67668;52.294;4.692;2023-05-20T13:07:01;3.65;;;1.25;;
78382;SDS011;67668;52.294;4.692;2023-05-20T13:09:27;2.13;;;1.27;;
78382;SDS011;67668;52.294;4.692;2023-05-20T13:11:52;7.38;;;1.30;;
78382;SDS011;67668;52.294;4.692;2023-05-20T13:14:18;3.60;;;1.38;;
78382;SDS011;67668;52.294;4.692;2023-05-20T13:16:43;4.30;;;0.82;;
78382;SDS011;67668;52.294;4.692;2023-05-20T13:19:08;2.15;;;1.15;;
78382;SDS011;67668;52.294;4.692;2023-05-20T13:21:34;3.85;;;1.60;;
78382;SDS011;67668;52.294;4.692;2023-05-20T13:23:59;3.30;;;1.07;;
78382;SDS011;67668;52.294;4.692;2023-05-20T13:26:25;3.20;;;1.05;;
78382;SDS011;67668;52.294;4.692;2023-05-20T13:28:50;3.05;;;1.08;;
78382;SDS011;67668;52.294;4.692;2023-05-20T13:31:16;3.28;;;1.17;;
78382;SDS011;67668;52.294;4.692;2023-05-20T13:33:42;3.50;;;1.33;;
78382;SDS011;67668;52.294;4.692;2023-05-20T13:36:08;4.15;;;1.20;;
78382;SDS011;67668;52.294;4.692;2023-05-20T13:38:34;2.08;;;1.15;;
78382;SDS011;67668;52.294;4.692;2023-05-20T13:40:59;2.42;;;1.30;;
78382;SDS011;67668;52.294;4.692;2023-05-20T13:43:25;2.45;;;1.10;;
78382;SDS011;67668;52.294;4.692;2023-05-20T13:45:54;2.72;;;1.30;;
78382;SDS011;67668;52.294;4.692;2023-05-20T13:48:19;5.18;;;1.27;;
78382;SDS011;67668;52.294;4.692;2023-05-20T13:50:45;4.82;;;1.00;;
78382;SDS011;67668;52.294;4.692;2023-05-20T13:53:10;1.50;;;1.10;;
78382;SDS011;67668;52.294;4.692;2023-05-20T13:55:38;5.72;;;1.35;;
78382;SDS011;67668;52.294;4.692;2023-05-20T13:58:03;2.45;;;0.90;;
78382;SDS011;67668;52.294;4.692;2023-05-20T14:00:32;3.85;;;1.17;;
78382;SDS011;67668;52.294;4.692;2023-05-20T14:03:00;6.45;;;1.40;;
78382;SDS011;67668;52.294;4.692;2023-05-20T14:05:29;6.75;;;1.77;;
78382;SDS011;67668;52.294;4.692;2023-05-20T14:07:55;4.00;;;1.65;;
78382;SDS011;67668;52.294;4.692;2023-05-20T14:10:20;3.65;;;1.15;;
78382;SDS011;67668;52.294;4.692;2023-05-20T14:12:46;3.13;;;1.33;;
78382;SDS011;67668;52.294;4.692;2023-05-20T14:15:12;2.92;;;1.10;;
78382;SDS011;67668;52.294;4.692;2023-05-20T14:17:37;7.05;;;1.10;;
78382;SDS011;67668;52.294;4.692;2023-05-20T14:20:03;3.75;;;1.25;;
78382;SDS011;67668;52.294;4.692;2023-05-20T14:22:30;2.60;;;2.00;;
78382;SDS011;67668;52.294;4.692;2023-05-20T14:24:55;4.15;;;1.30;;
78382;SDS011;67668;52.294;4.692;2023-05-20T14:27:20;2.40;;;0.90;;
78382;SDS011;67668;52.294;4.692;2023-05-20T14:29:46;1.80;;;0.93;;
78382;SDS011;67668;52.294;4.692;2023-05-20T14:32:12;3.15;;;1.23;;
78382;SDS011;67668;52.294;4.692;2023-05-20T14:34:38;5.60;;;1.17;;
78382;SDS011;67668;52.294;4.692;2023-05-20T14:37:03;4.10;;;1.20;;
78382;SDS011;67668;52.294;4.692;2023-05-20T14:39:34;3.40;;;1.10;;
78382;SDS011;67668;52.294;4.692;2023-05-20T14:41:59;4.75;;;0.98;;
78382;SDS011;67668;52.294;4.692;2023-05-20T14:44:25;1.77;;;1.02;;
78382;SDS011;67668;52.294;4.692;2023-05-20T14:46:50;3.60;;;1.57;;
78382;SDS011;67668;52.294;4.692;2023-05-20T14:49:16;4.30;;;1.10;;
78382;SDS011;67668;52.294;4.692;2023-05-20T14:51:41;2.38;;;0.95;;
78382;SDS011;67668;52.294;4.692;2023-05-20T14:54:07;3.03;;;1.25;;